Time;durP1;ratioP1;P1;durP2;ratioP2;P2;SDS_P1;SDS_P2;PMS_P1;PMS_P2;Temp;Humidity;BMP_temperature;BMP_pressure;BME280_temperature;BME280_humidity;BME280_pressure;Samples;Min_cycle;Max_cycle;Signal;HPM_P1;HPM_P2
2021/10/29 00:00:59;;;;;;;8.70;6.73;;;8.90;99.90;;;;;;5018109;28;20177;-70
2021/10/29 00:03:25;;;;;;;12.10;7.90;;;8.80;99.90;;;;;;5015770;28;20200;-69
2021/10/29 00:05:50;;;;;;;12.90;8.37;;;8.80;99.90;;;;;;5013584;28;20188;-69
2021/10/29 00:08:16;;;;;;;11.87;8.53;;;8.80;99.90;;;;;;5013485;28;20200;-68
2021/10/29 00:10:42;;;;;;;10.43;7.80;;;8.80;99.90;;;;;;5013618;28;20209;-69
2021/10/29 00:13:07;;;;;;;11.63;8.33;;;8.80;99.90;;;;;;5013358;28;20177;-69
2021/10/29 00:15:33;;;;;;;12.40;7.37;;;8.80;99.90;;;;;;5013321;28;20184;-69
2021/10/29 00:17:58;;;;;;;13.37;8.20;;;8.80;99.90;;;;;;5013369;28;20275;-68
2021/10/29 00:20:24;;;;;;;15.03;9.10;;;8.80;99.90;;;;;;5013084;28;20207;-68
2021/10/29 00:22:50;;;;;;;12.20;8.57;;;8.80;99.90;;;;;;5013108;28;20173;-68
2021/10/29 00:25:16;;;;;;;15.80;9.17;;;8.70;99.90;;;;;;5012990;28;20413;-68
2021/10/29 00:27:42;;;;;;;10.60;8.33;;;8.70;99.90;;;;;;5012879;28;20424;-69
2021/10/29 00:30:08;;;;;;;13.70;7.50;;;8.70;99.90;;;;;;5011506;28;20415;-69
2021/10/29 00:39:19;;;;;;;12.57;7.47;;;8.70;99.90;;;;;;5012609;28;20486;-68
2021/10/29 00:41:45;;;;;;;13.67;9.80;;;8.60;99.90;;;;;;5012608;28;20813;-68
2021/10/29 00:44:10;;;;;;;12.93;7.23;;;8.60;99.90;;;;;;5012443;28;20462;-68
2021/10/29 00:46:36;;;;;;;13.23;8.33;;;8.50;99.90;;;;;;5012384;28;20250;-68
2021/10/29 00:49:02;;;;;;;14.37;8.60;;;8.50;99.90;;;;;;5012212;28;20184;-69
2021/10/29 00:51:27;;;;;;;13.83;8.83;;;8.40;99.90;;;;;;5012147;28;20172;-68
2021/10/29 00:53:54;;;;;;;11.33;7.47;;;8.40;99.90;;;;;;5012128;28;20176;-68
2021/10/29 00:56:19;;;;;;;11.70;7.83;;;8.40;99.90;;;;;;5012278;28;20172;-68
2021/10/29 00:58:46;;;;;;;15.03;8.63;;;8.30;99.90;;;;;;5011989;28;20478;-68
2021/10/29 01:01:12;;;;;;;10.40;7.70;;;8.30;99.90;;;;;;5012003;28;20663;-70
2021/10/29 01:03:42;;;;;;;18.20;9.33;;;8.20;99.90;;;;;;5010709;28;20432;-68
2021/10/29 01:06:08;;;;;;;14.73;8.33;;;8.20;99.90;;;;;;5012122;28;20520;-69
2021/10/29 01:08:35;;;;;;;16.10;9.03;;;8.20;99.90;;;;;;5011884;28;20419;-68
2021/10/29 01:11:01;;;;;;;13.03;7.60;;;8.20;99.90;;;;;;5011772;28;20407;-69
2021/10/29 01:13:27;;;;;;;14.90;9.73;;;8.10;99.90;;;;;;5011739;28;20469;-69
2021/10/29 01:15:53;;;;;;;12.10;7.17;;;8.00;99.90;;;;;;5011967;28;20427;-68
2021/10/29 01:18:19;;;;;;;16.63;10.83;;;8.00;99.90;;;;;;5011821;28;20451;-68
2021/10/29 01:20:44;;;;;;;11.97;7.43;;;7.90;99.90;;;;;;5011953;28;20423;-70
2021/10/29 01:23:10;;;;;;;19.10;8.87;;;7.90;99.90;;;;;;5011945;28;20200;-68
2021/10/29 01:25:35;;;;;;;11.57;7.83;;;7.90;99.90;;;;;;5011695;28;20164;-69
2021/10/29 01:28:01;;;;;;;11.17;8.27;;;7.80;99.90;;;;;;5012055;28;20188;-69
2021/10/29 01:30:26;;;;;;;14.70;9.30;;;7.80;99.90;;;;;;5012015;28;20171;-68
2021/10/29 01:32:52;;;;;;;17.43;10.60;;;7.80;99.90;;;;;;5009804;28;20168;-69
2021/10/29 01:35:17;;;;;;;14.43;8.10;;;7.70;99.90;;;;;;5011903;28;20251;-68
2021/10/29 01:37:44;;;;;;;15.40;7.90;;;7.70;99.90;;;;;;5011745;28;20184;-68
2021/10/29 01:40:13;;;;;;;14.50;8.37;;;7.70;99.90;;;;;;5011728;28;20203;-68
2021/10/29 01:42:39;;;;;;;12.07;9.03;;;7.60;99.90;;;;;;5011856;28;20411;-69
2021/10/29 01:45:06;;;;;;;13.50;10.17;;;7.60;99.90;;;;;;5011780;28;20418;-68
2021/10/29 01:47:32;;;;;;;18.27;9.17;;;7.50;99.90;;;;;;5011451;28;20431;-69
2021/10/29 01:49:58;;;;;;;15.40;9.03;;;7.50;99.90;;;;;;5011613;28;20492;-69
2021/10/29 01:52:23;;;;;;;15.43;9.43;;;7.50;99.90;;;;;;5011497;28;20439;-69
2021/10/29 01:54:49;;;;;;;11.67;7.77;;;7.50;99.90;;;;;;5011377;28;20172;-69
2021/10/29 01:57:14;;;;;;;12.70;8.87;;;7.40;99.90;;;;;;5011521;28;20255;-68
2021/10/29 01:59:40;;;;;;;15.10;9.57;;;7.30;99.90;;;;;;5011347;28;20200;-68
2021/10/29 02:02:05;;;;;;;12.07;7.67;;;7.40;99.90;;;;;;5011518;28;20592;-68
2021/10/29 02:04:31;;;;;;;16.23;9.80;;;7.40;99.90;;;;;;5010068;28;20493;-68
2021/10/29 02:06:56;;;;;;;15.07;9.60;;;7.40;99.90;;;;;;5011580;28;20168;-68
2021/10/29 02:09:22;;;;;;;17.03;9.30;;;7.40;99.90;;;;;;5011343;28;20196;-69
2021/10/29 02:11:47;;;;;;;17.33;10.77;;;7.40;99.90;;;;;;5011337;28;20212;-68
2021/10/29 02:14:13;;;;;;;10.87;8.40;;;7.50;99.90;;;;;;5011299;28;20244;-68
2021/10/29 02:16:40;;;;;;;15.80;9.77;;;7.40;99.90;;;;;;5011255;28;20217;-68
2021/10/29 02:19:06;;;;;;;19.43;9.33;;;7.40;99.90;;;;;;5011315;28;20686;-68
2021/10/29 02:21:32;;;;;;;15.37;9.07;;;7.30;99.90;;;;;;5011843;28;20418;-68
2021/10/29 02:23:58;;;;;;;11.63;7.50;;;7.20;99.90;;;;;;5011660;28;20389;-68
2021/10/29 02:26:24;;;;;;;12.17;8.77;;;7.20;99.90;;;;;;5011819;28;20407;-68
2021/10/29 02:28:50;;;;;;;15.20;9.40;;;7.10;99.90;;;;;;5011550;28;20614;-68
2021/10/29 02:31:16;;;;;;;13.60;9.07;;;7.10;99.90;;;;;;5011388;28;20970;-67
2021/10/29 02:33:42;;;;;;;13.53;8.73;;;7.10;99.90;;;;;;5011450;28;20411;-68
2021/10/29 02:36:07;;;;;;;11.70;9.27;;;7.10;99.90;;;;;;5011659;28;20403;-68
2021/10/29 02:38:33;;;;;;;15.23;7.77;;;7.10;99.90;;;;;;5011340;28;20211;-69
2021/10/29 02:41:00;;;;;;;15.30;10.47;;;7.00;99.90;;;;;;5011535;28;20173;-69
2021/10/29 02:43:26;;;;;;;15.77;9.40;;;7.10;99.90;;;;;;5011536;28;20765;-68
2021/10/29 02:45:51;;;;;;;19.03;10.70;;;7.00;99.90;;;;;;5015169;28;20498;-68
2021/10/29 02:48:17;;;;;;;12.00;9.43;;;7.00;99.90;;;;;;5015243;28;20776;-68
2021/10/29 02:50:42;;;;;;;15.80;9.70;;;7.00;99.90;;;;;;5015130;28;20659;-68
2021/10/29 02:53:08;;;;;;;14.63;9.87;;;7.00;99.90;;;;;;5014895;28;20238;-68
2021/10/29 02:55:34;;;;;;;24.53;11.60;;;7.00;99.90;;;;;;5015025;28;20168;-68
2021/10/29 02:58:00;;;;;;;15.37;8.17;;;6.90;99.90;;;;;;5014859;28;20279;-69
2021/10/29 03:00:26;;;;;;;13.37;9.77;;;6.90;99.90;;;;;;5014761;28;20204;-68
2021/10/29 03:02:51;;;;;;;17.90;11.03;;;6.90;99.90;;;;;;5014782;28;20461;-70
2021/10/29 03:05:17;;;;;;;14.23;8.60;;;6.90;99.90;;;;;;5014767;28;20168;-67
2021/10/29 03:07:42;;;;;;;19.73;11.23;;;6.90;99.90;;;;;;5014542;28;20200;-68
2021/10/29 03:10:10;;;;;;;16.13;9.37;;;6.80;99.90;;;;;;5013564;28;20176;-69
2021/10/29 03:12:35;;;;;;;17.97;10.43;;;6.80;99.90;;;;;;5014735;28;20562;-68
2021/10/29 03:15:02;;;;;;;16.00;10.67;;;6.70;99.90;;;;;;5014892;28;20415;-67
2021/10/29 03:17:28;;;;;;;21.40;9.37;;;6.70;99.90;;;;;;5014449;28;20545;-70
2021/10/29 03:19:53;;;;;;;18.17;10.07;;;6.70;99.90;;;;;;5014616;28;20545;-68
2021/10/29 03:22:19;;;;;;;15.10;10.33;;;6.60;99.90;;;;;;5014657;28;20183;-69
2021/10/29 03:24:44;;;;;;;12.77;8.80;;;6.60;99.90;;;;;;5014536;28;20240;-69
2021/10/29 03:27:10;;;;;;;12.57;10.10;;;6.60;99.90;;;;;;5014849;28;20250;-68
2021/10/29 03:29:37;;;;;;;14.93;9.97;;;6.60;99.90;;;;;;5014751;28;20511;-68
2021/10/29 03:32:03;;;;;;;14.33;9.97;;;6.60;99.90;;;;;;5014546;28;20175;-68
2021/10/29 03:34:28;;;;;;;17.97;11.00;;;6.60;99.90;;;;;;5014250;28;20910;-69
2021/10/29 03:36:54;;;;;;;15.87;10.50;;;6.60;99.90;;;;;;5012963;28;20196;-69
2021/10/29 03:39:28;;;;;;;11.00;8.20;;;6.60;99.90;;;;;;5014242;28;20210;-69
2021/10/29 03:41:58;;;;;;;14.60;9.60;;;6.50;99.90;;;;;;5014085;28;20259;-69
2021/10/29 03:46:59;;;;;;;13.70;9.00;;;6.50;99.90;;;;;;5014139;28;20898;-68
2021/10/29 03:49:32;;;;;;;15.93;8.00;;;6.40;99.90;;;;;;5013893;28;20474;-69
2021/10/29 03:52:06;;;;;;;13.97;8.73;;;6.40;99.90;;;;;;5013860;28;20407;-69
2021/10/29 03:54:34;;;;;;;12.37;9.13;;;6.40;99.90;;;;;;5013997;28;20499;-68
2021/10/29 03:59:29;;;;;;;13.50;8.93;;;6.30;99.90;;;;;;5013871;28;20459;-68
2021/10/29 04:01:54;;;;;;;18.23;8.80;;;6.30;99.90;;;;;;5013617;28;20449;-68
2021/10/29 04:04:20;;;;;;;14.87;11.10;;;6.30;99.90;;;;;;5013629;28;20869;-68
2021/10/29 04:06:46;;;;;;;16.10;8.73;;;6.30;99.90;;;;;;5013697;28;20172;-68
2021/10/29 04:09:12;;;;;;;10.97;8.20;;;6.20;99.90;;;;;;5013904;28;20230;-68
2021/10/29 04:11:38;;;;;;;12.70;9.27;;;6.20;99.90;;;;;;5013556;28;20408;-68
2021/10/29 04:14:11;;;;;;;14.03;9.43;;;6.20;99.90;;;;;;5013529;28;20632;-69
2021/10/29 04:16:37;;;;;;;18.57;10.10;;;6.20;99.90;;;;;;5013472;28;20434;-68
2021/10/29 04:19:08;;;;;;;16.50;9.57;;;6.20;99.90;;;;;;5013348;28;20458;-68
2021/10/29 04:21:35;;;;;;;16.60;9.47;;;6.20;99.90;;;;;;5013491;28;20453;-70
2021/10/29 04:24:01;;;;;;;13.77;9.10;;;6.20;99.90;;;;;;5013297;28;20411;-68
2021/10/29 04:26:26;;;;;;;13.87;9.13;;;6.20;99.90;;;;;;5013160;28;20399;-68
2021/10/29 04:28:55;;;;;;;17.37;11.00;;;6.20;99.90;;;;;;5012965;28;20223;-69
2021/10/29 04:31:24;;;;;;;15.00;9.23;;;6.20;99.90;;;;;;5012904;28;20187;-67
2021/10/29 04:33:53;;;;;;;19.53;9.60;;;6.10;99.90;;;;;;5013254;28;20408;-68
2021/10/29 04:36:19;;;;;;;10.00;8.57;;;6.10;99.90;;;;;;5013132;28;20415;-68
2021/10/29 04:38:46;;;;;;;11.87;8.30;;;6.10;99.90;;;;;;5013109;28;20490;-68
2021/10/29 04:41:12;;;;;;;17.50;9.50;;;6.10;99.90;;;;;;5012889;28;20404;-68
2021/10/29 04:43:38;;;;;;;16.13;8.70;;;6.10;99.90;;;;;;5012725;28;20407;-70
2021/10/29 04:46:04;;;;;;;12.10;8.47;;;6.10;99.90;;;;;;5012955;28;20477;-68
2021/10/29 04:48:30;;;;;;;19.50;9.87;;;6.10;99.90;;;;;;5013049;28;20454;-68
2021/10/29 04:50:56;;;;;;;18.03;8.93;;;6.10;99.90;;;;;;5013458;28;20407;-69
2021/10/29 04:53:22;;;;;;;17.37;10.40;;;6.10;99.90;;;;;;5012962;28;20608;-68
2021/10/29 04:55:48;;;;;;;16.33;9.10;;;6.10;99.90;;;;;;5011537;28;20411;-69
2021/10/29 04:58:13;;;;;;;13.87;9.27;;;6.10;99.90;;;;;;5012548;28;20954;-68
2021/10/29 05:00:39;;;;;;;10.33;9.03;;;6.10;99.90;;;;;;5012952;28;20164;-68
2021/10/29 05:03:06;;;;;;;18.33;10.00;;;6.10;99.90;;;;;;5012974;28;20200;-69
2021/10/29 05:05:34;;;;;;;13.50;9.57;;;6.00;99.90;;;;;;5012632;28;20453;-68
2021/10/29 05:08:00;;;;;;;13.33;8.30;;;6.00;99.90;;;;;;5011027;28;20461;-68
2021/10/29 05:10:26;;;;;;;13.23;8.73;;;5.90;99.90;;;;;;5012552;28;20423;-68
2021/10/29 05:12:51;;;;;;;13.23;11.23;;;5.90;99.90;;;;;;5012420;28;20492;-68
2021/10/29 05:15:17;;;;;;;11.33;9.13;;;5.90;99.90;;;;;;5012287;28;20191;-69
2021/10/29 05:17:44;;;;;;;14.87;8.40;;;5.90;99.90;;;;;;5012429;28;20189;-68
2021/10/29 05:20:10;;;;;;;17.50;9.20;;;5.80;99.90;;;;;;5012338;28;20192;-68
2021/10/29 05:22:36;;;;;;;13.33;10.60;;;5.90;99.90;;;;;;5012264;28;20407;-67
2021/10/29 05:25:01;;;;;;;13.17;8.93;;;5.90;99.90;;;;;;5012223;28;20454;-68
2021/10/29 05:27:27;;;;;;;14.70;9.90;;;5.90;99.90;;;;;;5012203;28;20566;-68
2021/10/29 05:29:52;;;;;;;12.33;8.47;;;5.80;99.90;;;;;;5012172;28;20171;-68
2021/10/29 05:32:17;;;;;;;18.07;10.33;;;5.80;99.90;;;;;;5012142;28;20187;-69
2021/10/29 05:34:43;;;;;;;16.00;11.40;;;5.80;99.90;;;;;;5012225;28;20206;-68
2021/10/29 05:37:08;;;;;;;12.57;7.87;;;5.80;99.90;;;;;;5012595;28;20188;-68
2021/10/29 05:39:34;;;;;;;17.90;10.53;;;5.80;99.90;;;;;;5012218;28;20656;-68
2021/10/29 05:42:00;;;;;;;11.77;8.40;;;5.90;99.90;;;;;;5011892;28;20295;-68
2021/10/29 05:44:26;;;;;;;9.10;8.20;;;5.80;99.90;;;;;;5012080;28;20172;-68
2021/10/29 05:46:51;;;;;;;13.33;8.60;;;5.70;99.90;;;;;;5012084;28;20498;-68
2021/10/29 05:49:18;;;;;;;14.23;9.27;;;5.70;99.90;;;;;;5012072;28;20658;-68
2021/10/29 05:51:48;;;;;;;11.70;8.60;;;5.70;99.90;;;;;;5012087;28;20173;-68
2021/10/29 05:56:59;;;;;;;16.90;11.00;;;5.70;99.90;;;;;;5012323;28;20451;-69
2021/10/29 05:59:25;;;;;;;10.70;9.17;;;5.70;99.90;;;;;;5011751;28;20469;-68
2021/10/29 06:01:50;;;;;;;16.83;11.73;;;5.80;99.90;;;;;;5011948;28;20404;-69
2021/10/29 06:04:16;;;;;;;14.50;10.17;;;5.70;99.90;;;;;;5011828;28;20489;-68
2021/10/29 06:06:41;;;;;;;16.37;9.30;;;5.80;99.90;;;;;;5011920;28;20172;-68
2021/10/29 06:09:07;;;;;;;17.20;9.60;;;5.80;99.90;;;;;;5011761;28;20192;-70
2021/10/29 06:11:32;;;;;;;15.03;8.00;;;5.80;99.90;;;;;;5012375;28;20587;-67
2021/10/29 06:14:03;;;;;;;16.17;11.33;;;5.80;99.90;;;;;;5011984;28;20176;-69
2021/10/29 06:16:34;;;;;;;14.60;8.67;;;5.80;99.90;;;;;;5012070;28;20561;-69
2021/10/29 06:19:03;;;;;;;12.00;7.30;;;5.80;99.90;;;;;;5011778;28;20485;-68
2021/10/29 06:21:34;;;;;;;13.83;8.33;;;5.80;99.90;;;;;;5015941;28;20457;-72
2021/10/29 06:24:03;;;;;;;12.53;8.20;;;5.80;99.90;;;;;;5014482;28;20435;-68
2021/10/29 06:26:39;;;;;;;24.20;9.10;;;5.80;99.90;;;;;;5015724;28;20457;-70
2021/10/29 06:29:05;;;;;;;20.67;9.47;;;5.90;99.90;;;;;;5015899;28;20756;-71
2021/10/29 06:31:30;;;;;;;12.60;8.60;;;5.90;99.90;;;;;;5015456;28;20411;-68
2021/10/29 06:33:56;;;;;;;15.53;12.87;;;5.90;99.90;;;;;;5015828;28;20407;-68
2021/10/29 06:36:21;;;;;;;15.60;10.63;;;6.00;99.90;;;;;;5015438;28;20176;-69
2021/10/29 06:38:47;;;;;;;16.47;8.90;;;5.90;99.90;;;;;;5022008;28;20207;-68
2021/10/29 06:41:12;;;;;;;17.40;7.60;;;6.00;99.90;;;;;;5029737;28;20168;-68
2021/10/29 06:48:48;;;;;;;18.27;11.50;;;6.50;99.90;;;;;;5015277;28;20199;-69
2021/10/29 06:59:30;;;;;;;18.03;12.70;;;6.40;99.90;;;;;;5015174;28;20458;-69
2021/10/29 07:04:58;;;;;;;11.53;8.67;;;6.40;99.90;;;;;;5015206;28;20449;-68
2021/10/29 07:40:16;;;;;;;11.50;6.70;;;8.10;99.90;;;;;;5019183;28;20489;-69
2021/10/29 07:43:03;;;;;;;8.57;6.37;;;8.10;99.90;;;;;;5014336;28;20408;-69
2021/10/29 07:45:29;;;;;;;10.70;6.47;;;8.30;99.90;;;;;;5014491;28;20413;-69
2021/10/29 07:47:55;;;;;;;16.87;7.37;;;8.10;99.90;;;;;;5033763;28;20491;-69
2021/10/29 07:50:21;;;;;;;13.43;7.77;;;8.30;99.90;;;;;;5034202;28;20178;-69
2021/10/29 07:52:49;;;;;;;12.30;7.07;;;8.50;99.90;;;;;;5033809;28;20406;-70
2021/10/29 07:55:16;;;;;;;14.80;7.83;;;8.80;99.90;;;;;;5033574;28;20178;-69
2021/10/29 07:57:44;;;;;;;10.87;7.30;;;9.00;99.90;;;;;;5033687;28;20933;-68
2021/10/29 08:00:11;;;;;;;9.73;8.53;;;9.40;99.90;;;;;;5033678;28;20545;-69
2021/10/29 08:02:36;;;;;;;8.73;7.43;;;9.40;99.90;;;;;;5033586;28;20452;-69
2021/10/29 08:05:03;;;;;;;10.50;7.70;;;9.90;99.90;;;;;;5033583;28;20402;-68
2021/10/29 08:07:29;;;;;;;12.80;8.40;;;9.70;99.90;;;;;;5033511;28;20188;-67
2021/10/29 08:09:55;;;;;;;12.80;8.93;;;9.50;99.90;;;;;;5028909;28;20899;-67
2021/10/29 08:12:21;;;;;;;13.00;7.77;;;9.90;99.90;;;;;;5033214;28;20413;-69
2021/10/29 08:14:48;;;;;;;12.57;8.13;;;9.90;99.90;;;;;;5013620;28;20462;-67
2021/10/29 08:17:16;;;;;;;14.00;8.80;;;9.70;99.90;;;;;;5013591;28;20192;-68
2021/10/29 08:19:42;;;;;;;13.40;8.10;;;9.80;99.90;;;;;;5013653;28;20530;-67
2021/10/29 08:22:07;;;;;;;10.73;6.97;;;9.70;99.90;;;;;;5013424;28;20542;-67
2021/10/29 08:24:35;;;;;;;12.50;7.97;;;9.20;99.90;;;;;;5013046;28;20662;-69
2021/10/29 08:27:02;;;;;;;13.67;7.43;;;9.00;99.90;;;;;;5013610;28;20655;-69
2021/10/29 08:29:28;;;;;;;11.03;8.80;;;9.10;99.90;;;;;;5013301;28;20809;-68
2021/10/29 08:31:54;;;;;;;12.27;8.07;;;9.40;99.90;;;;;;5013160;28;20461;-69
2021/10/29 08:34:24;;;;;;;8.87;6.47;;;9.60;99.90;;;;;;5011750;28;20473;-69
2021/10/29 08:36:49;;;;;;;11.80;8.73;;;10.10;99.90;;;;;;5013649;28;20778;-69
2021/10/29 08:39:15;;;;;;;10.43;6.57;;;10.30;99.90;;;;;;5012900;28;20550;-68
2021/10/29 08:41:43;;;;;;;11.00;7.27;;;10.40;99.90;;;;;;5031695;28;20171;-68
2021/10/29 08:44:10;;;;;;;14.43;8.13;;;10.50;99.90;;;;;;5032645;28;20160;-68
2021/10/29 08:46:36;;;;;;;9.30;6.53;;;10.70;99.90;;;;;;5023752;28;20446;-68
2021/10/29 08:49:01;;;;;;;9.67;7.40;;;11.00;99.90;;;;;;5013032;28;20984;-69
2021/10/29 08:51:28;;;;;;;8.63;6.67;;;11.30;99.90;;;;;;5012604;28;20200;-68
2021/10/29 08:53:55;;;;;;;8.93;6.97;;;11.00;99.90;;;;;;5012477;28;20211;-69
2021/10/29 08:56:30;;;;;;;11.97;8.37;;;11.10;99.90;;;;;;5012552;28;20403;-68
2021/10/29 08:59:19;;;;;;;11.70;7.70;;;11.10;99.90;;;;;;5012431;28;20447;-69
2021/10/29 09:02:04;;;;;;;8.60;6.27;;;10.60;99.90;;;;;;5012461;28;20482;-68
2021/10/29 09:07:21;;;;;;;10.07;6.67;;;10.70;99.90;;;;;;5012512;28;20430;-68
2021/10/29 09:33:05;;;;;;;11.10;8.00;;;11.30;99.90;;;;;;5031699;28;20406;-68
2021/10/29 09:35:35;;;;;;;11.07;8.33;;;11.10;99.90;;;;;;5031822;28;20405;-70
2021/10/29 09:38:09;;;;;;;10.13;6.37;;;11.30;99.90;;;;;;5030716;28;20454;-71
2021/10/29 09:40:40;;;;;;;7.50;6.20;;;11.00;99.90;;;;;;5032170;28;20453;-69
2021/10/29 09:43:19;;;;;;;9.10;6.27;;;11.20;99.90;;;;;;5021187;28;20443;-69
2021/10/29 09:45:58;;;;;;;8.60;6.43;;;11.20;99.90;;;;;;5012462;28;20501;-69
2021/10/29 09:48:33;;;;;;;9.50;6.80;;;11.10;99.90;;;;;;5031537;28;20552;-71
2021/10/29 09:51:05;;;;;;;8.13;6.67;;;11.00;99.90;;;;;;5032130;28;20401;-72
2021/10/29 09:53:45;;;;;;;10.83;6.77;;;10.90;99.90;;;;;;5031326;28;20413;-69
2021/10/29 09:58:54;;;;;;;7.53;5.67;;;11.20;99.90;;;;;;5031818;28;20473;-68
2021/10/29 10:01:31;;;;;;;8.33;6.97;;;11.10;99.90;;;;;;5031285;28;20414;-69
2021/10/29 10:04:07;;;;;;;8.73;6.33;;;11.10;99.90;;;;;;5011939;28;20398;-71
2021/10/29 10:06:37;;;;;;;9.20;7.27;;;11.30;99.90;;;;;;5011640;28;20942;-71
2021/10/29 10:09:07;;;;;;;10.03;6.37;;;11.30;99.90;;;;;;5017313;28;20434;-73
2021/10/29 10:11:34;;;;;;;7.97;5.73;;;11.40;99.90;;;;;;5031139;28;20421;-72
2021/10/29 10:14:01;;;;;;;10.50;6.17;;;11.40;99.90;;;;;;5030499;28;20834;-72
2021/10/29 10:16:28;;;;;;;8.60;6.30;;;11.40;99.90;;;;;;5029283;28;20517;-69
2021/10/29 10:18:55;;;;;;;11.53;6.30;;;11.30;99.90;;;;;;5030834;28;20454;-69
2021/10/29 10:21:22;;;;;;;12.60;6.80;;;11.60;99.90;;;;;;5031272;28;20413;-69
2021/10/29 10:23:51;;;;;;;10.93;6.60;;;11.70;99.90;;;;;;5029266;28;21209;-69
2021/10/29 10:46:18;;;;;;;8.83;7.57;;;12.60;99.90;;;;;;5014696;28;20425;-72
2021/10/29 10:49:22;;;;;;;7.67;6.40;;;12.70;99.90;;;;;;5030638;28;20427;-68
2021/10/29 10:51:38;;;;;;;13.53;7.97;;;12.60;99.90;;;;;;5028342;28;20410;-69
2021/10/29 11:00:21;;;;;;;10.23;7.73;;;12.70;99.90;;;;;;5017941;28;20533;-67
2021/10/29 11:05:39;;;;;;;13.00;8.83;;;12.90;99.90;;;;;;5032390;28;20422;-68
2021/10/29 11:10:58;;;;;;;8.77;7.23;;;13.10;99.90;;;;;;5034496;28;20976;-69
2021/10/29 11:13:44;;;;;;;14.40;7.77;;;12.90;99.90;;;;;;5034153;28;20488;-69
2021/10/29 11:16:16;;;;;;;12.73;8.33;;;13.00;99.90;;;;;;5029508;28;20590;-70
2021/10/29 11:18:51;;;;;;;10.97;8.00;;;13.10;99.90;;;;;;5034015;28;20492;-69
2021/10/29 11:21:23;;;;;;;9.70;7.17;;;13.20;99.90;;;;;;5014434;28;20745;-68
2021/10/29 11:23:52;;;;;;;13.40;7.90;;;13.30;99.90;;;;;;5030875;28;20827;-68
2021/10/29 11:26:36;;;;;;;9.10;7.37;;;13.50;99.90;;;;;;5029537;28;20398;-68
2021/10/29 11:29:03;;;;;;;8.30;6.77;;;13.50;99.90;;;;;;5014185;28;20480;-68
2021/10/29 11:31:35;;;;;;;11.87;6.90;;;13.60;99.90;;;;;;5014406;28;20436;-69
2021/10/29 11:34:05;;;;;;;16.73;8.13;;;13.50;99.90;;;;;;5014091;28;20399;-69
2021/10/29 11:36:34;;;;;;;11.57;7.80;;;13.50;99.90;;;;;;5033525;28;20768;-69
2021/10/29 11:39:02;;;;;;;11.07;7.13;;;13.60;99.90;;;;;;5036361;28;20563;-69
2021/10/29 11:41:34;;;;;;;10.00;7.10;;;13.70;99.90;;;;;;5037276;28;20407;-69
2021/10/29 11:44:06;;;;;;;9.80;7.20;;;13.90;99.90;;;;;;5035445;28;20403;-69
2021/10/29 11:46:33;;;;;;;15.63;9.20;;;14.00;99.90;;;;;;5036073;28;20410;-69
2021/10/29 11:49:03;;;;;;;9.00;7.20;;;14.10;99.90;;;;;;5039928;28;20430;-70
2021/10/29 11:51:30;;;;;;;8.90;7.00;;;14.00;99.90;;;;;;5035517;28;20435;-70
2021/10/29 11:54:05;;;;;;;10.87;7.63;;;14.00;99.90;;;;;;5034022;28;20429;-69
2021/10/29 12:07:23;;;;;;;9.63;6.43;;;14.00;99.90;;;;;;5013635;28;20438;-69
2021/10/29 12:10:04;;;;;;;10.53;6.80;;;14.20;99.90;;;;;;5013981;28;20417;-69
2021/10/29 12:12:30;;;;;;;10.30;7.27;;;14.10;99.90;;;;;;5013489;28;20936;-69
2021/10/29 12:15:08;;;;;;;12.47;8.30;;;14.40;99.90;;;;;;5017991;28;20940;-69
2021/10/29 12:17:35;;;;;;;12.50;6.73;;;14.40;99.90;;;;;;5032168;28;20442;-70
2021/10/29 12:20:06;;;;;;;10.03;6.77;;;14.40;99.90;;;;;;5032666;28;20476;-70
2021/10/29 12:22:42;;;;;;;10.70;8.80;;;14.40;99.90;;;;;;5026705;28;20411;-69
2021/10/29 12:28:05;;;;;;;10.37;6.53;;;14.50;99.90;;;;;;5012934;28;20431;-70
2021/10/29 12:30:47;;;;;;;11.37;7.40;;;14.30;99.90;;;;;;5013127;28;20410;-69
2021/10/29 12:53:02;;;;;;;11.87;7.90;;;14.70;99.90;;;;;;5032364;28;20398;-68
2021/10/29 13:04:01;;;;;;;13.87;8.70;;;14.80;99.90;;;;;;5032073;28;20437;-74
2021/10/29 13:06:29;;;;;;;9.50;7.47;;;14.70;99.90;;;;;;5026631;28;20393;-73
2021/10/29 13:08:55;;;;;;;10.47;8.60;;;14.70;99.90;;;;;;5012510;28;20420;-72
2021/10/29 13:11:22;;;;;;;12.17;6.93;;;14.70;99.90;;;;;;5012217;28;20407;-70
2021/10/29 13:14:00;;;;;;;11.93;8.27;;;14.50;99.90;;;;;;5029199;28;20207;-70
2021/10/29 13:16:27;;;;;;;11.07;7.63;;;14.50;99.90;;;;;;5031635;28;20409;-70
2021/10/29 13:51:15;;;;;;;10.10;7.30;;;14.30;99.90;;;;;;5031725;28;20405;-70
2021/10/29 13:56:41;;;;;;;10.70;7.10;;;14.20;99.90;;;;;;5031456;28;20494;-68
2021/10/29 14:02:13;;;;;;;9.73;7.33;;;14.30;99.90;;;;;;5031367;28;20928;-69
2021/10/29 14:29:10;;;;;;;9.57;8.00;;;14.10;99.90;;;;;;5031012;28;20580;-69
2021/10/29 14:31:46;;;;;;;6.80;5.60;;;14.00;99.90;;;;;;5031137;28;20439;-69
2021/10/29 14:34:24;;;;;;;8.37;7.10;;;14.00;99.90;;;;;;5030984;28;20449;-68
2021/10/29 14:37:08;;;;;;;11.20;6.90;;;14.00;99.90;;;;;;5031292;28;20496;-68
2021/10/29 14:40:00;;;;;;;8.83;7.30;;;14.00;99.90;;;;;;5031311;28;20991;-71
2021/10/29 14:42:34;;;;;;;7.90;6.93;;;14.00;99.90;;;;;;5035237;28;20432;-69
2021/10/29 14:45:06;;;;;;;9.57;6.90;;;13.90;99.90;;;;;;5035267;28;20393;-69
2021/10/29 14:47:43;;;;;;;11.10;7.57;;;13.80;99.90;;;;;;5035050;28;20426;-69
2021/10/29 15:15:06;;;;;;;8.27;6.83;;;13.40;99.90;;;;;;5027120;28;20514;-70
2021/10/29 15:17:25;;;;;;;10.17;7.73;;;13.30;99.90;;;;;;5034241;28;20765;-69
2021/10/29 15:24:41;;;;;;;10.60;8.07;;;13.20;99.90;;;;;;5034424;28;20433;-70
2021/10/29 15:25:37;;;;;;;9.50;7.17;;;13.10;99.90;;;;;;5034101;28;20516;-69
2021/10/29 15:28:14;;;;;;;11.53;8.77;;;13.10;99.90;;;;;;5034221;28;20423;-70
2021/10/29 15:30:52;;;;;;;10.67;8.40;;;13.00;99.90;;;;;;5034230;28;20436;-69
2021/10/29 15:41:49;;;;;;;8.27;6.30;;;12.80;99.90;;;;;;5034003;28;20421;-70
2021/10/29 15:44:18;;;;;;;13.27;8.07;;;12.70;99.90;;;;;;5033893;28;20410;-69
2021/10/29 15:46:53;;;;;;;9.67;7.27;;;12.70;99.90;;;;;;5033912;28;20564;-69
2021/10/29 15:52:02;;;;;;;10.50;8.23;;;12.50;99.90;;;;;;5032838;28;20417;-69
2021/10/29 15:54:27;;;;;;;10.10;8.00;;;12.40;99.90;;;;;;5033520;28;20890;-69
2021/10/29 15:56:56;;;;;;;13.50;9.00;;;12.40;99.90;;;;;;5033867;28;20409;-69
2021/10/29 15:59:47;;;;;;;10.87;8.03;;;12.30;99.90;;;;;;5033595;28;20233;-71
2021/10/29 16:02:33;;;;;;;11.67;8.23;;;12.30;99.90;;;;;;5033836;28;20398;-69
2021/10/29 16:18:38;;;;;;;11.57;8.20;;;12.00;99.90;;;;;;5033575;28;20449;-68
2021/10/29 16:21:04;;;;;;;11.17;8.20;;;12.00;99.90;;;;;;5033991;28;20402;-68
2021/10/29 16:23:30;;;;;;;11.70;8.17;;;11.90;99.90;;;;;;5019970;28;20173;-68
2021/10/29 16:26:07;;;;;;;13.60;8.20;;;11.80;99.90;;;;;;5014541;28;20168;-67
2021/10/29 16:28:34;;;;;;;10.33;7.17;;;11.80;99.90;;;;;;5014371;28;20450;-69
2021/10/29 16:31:01;;;;;;;12.20;10.90;;;11.80;99.90;;;;;;5013669;28;20910;-69
2021/10/29 16:33:33;;;;;;;10.93;7.50;;;11.70;99.90;;;;;;5013807;28;20395;-68
2021/10/29 16:36:01;;;;;;;10.60;7.83;;;11.70;99.90;;;;;;5015472;28;20431;-69
2021/10/29 16:38:26;;;;;;;11.37;9.40;;;11.70;99.90;;;;;;5017604;28;20427;-69
2021/10/29 16:40:52;;;;;;;11.67;8.33;;;11.60;99.90;;;;;;5030212;28;20492;-69
2021/10/29 16:43:18;;;;;;;14.37;9.00;;;11.60;99.90;;;;;;5038581;28;20167;-69
2021/10/29 16:45:46;;;;;;;9.10;7.87;;;11.60;99.90;;;;;;5038260;28;20194;-69
2021/10/29 16:48:13;;;;;;;11.47;8.57;;;11.50;99.90;;;;;;5037938;28;20438;-70
2021/10/29 16:50:39;;;;;;;10.60;8.30;;;11.50;99.90;;;;;;5038225;28;20406;-70
2021/10/29 16:53:05;;;;;;;11.63;8.43;;;11.50;99.90;;;;;;5039261;28;20449;-70
2021/10/29 16:55:30;;;;;;;11.83;7.80;;;11.50;99.90;;;;;;5039371;28;20414;-70
2021/10/29 16:57:56;;;;;;;10.70;8.40;;;11.50;99.90;;;;;;5038298;28;20196;-69
2021/10/29 17:00:22;;;;;;;8.90;7.60;;;11.50;99.90;;;;;;5036158;28;20196;-69
2021/10/29 17:02:48;;;;;;;13.20;8.20;;;11.60;99.90;;;;;;5033023;28;20422;-69
2021/10/29 17:05:13;;;;;;;11.60;8.73;;;11.50;99.90;;;;;;5033782;28;20851;-70
2021/10/29 17:07:40;;;;;;;13.87;8.60;;;11.40;99.90;;;;;;5034153;28;20342;-70
2021/10/29 17:10:08;;;;;;;11.70;8.53;;;11.40;99.90;;;;;;5033046;28;20175;-69
2021/10/29 17:12:35;;;;;;;21.00;8.30;;;11.40;99.90;;;;;;5032470;28;20421;-69
2021/10/29 17:15:01;;;;;;;11.70;7.90;;;11.40;99.90;;;;;;5031062;28;20968;-69
2021/10/29 17:17:27;;;;;;;11.80;7.70;;;11.30;99.90;;;;;;5035338;28;20426;-69
2021/10/29 17:19:52;;;;;;;15.00;9.60;;;11.30;99.90;;;;;;5037024;28;20449;-71
2021/10/29 17:22:18;;;;;;;10.20;8.00;;;11.20;99.90;;;;;;5036375;28;20172;-70
2021/10/29 17:24:45;;;;;;;11.03;8.37;;;11.20;99.90;;;;;;5019585;28;20211;-70
2021/10/29 17:27:10;;;;;;;10.50;8.23;;;11.20;99.90;;;;;;5015663;28;20598;-69
2021/10/29 17:29:36;;;;;;;11.97;8.37;;;11.20;99.90;;;;;;5016226;28;20400;-69